Bei Facebook empfehlenBei Twitter postenGoogle plusPinterest

Das Wetter im Erzgebirge am 14.05.2016

Wetter und Klima am 14.05.2016 Holzhau im Erzgebirge (630m ü.NN)
Letzte gemessene Temperatur und Uhrzeit der Messung23:45:00 Uhr1.80 °C
Temperatur (Maximum / Höchstwert) und Uhrzeit der Messung13:00:00 Uhr12.10 °C
Temperatur (Minimum / Tiefstwert) und Uhrzeit der Messung23:45:001.80 °C
Errechneter Absolutwert der Temperaturschwankungen zwischen Tmin und Tmax des Tages10.30 K
Errechnete Tagesmitteltemperatur6.29063 °C
Gesamt - Niederschlag des Tages (in flüssiger Form)0.52 Liter / m²
Luftdruck (Maximum / Höchstwert) und Zeitpunkt der Messung23:45:00 Uhr1007.00 hPa
Luftdruck (Minimum / Tiefstwert) und Zeitpunkt der Messung01:30:00 Uhr998.80 hPa
Errechneter Absolutwert der Luftdruckschwankungen des Tages8.20 hPa
Höchste gemessene Windgeschwindigkeit und Uhrzeit der Messung23:45:00 Uhr0.00 km/h
Errechnete Windhäufigkeit in Relation zu den Messwerten des Tages0.00000 %
Niedrigste Windkühle (Windchill) und Zeitpunkt der Messung23:45:00 Uhr1.80 °C
Taupunkt (Maximum / Höchstwert) und Uhrzeit der Messung10:15:00 Uhr7.40 °C
Taupunkt (Minimum / Tiefstwert) und Uhrzeit der Messung21:00:00-1.20 °C
Anzahl der automatisch eingelesenen Messwerte 96

Detaillierte Wetter- und Klima- Messwerte für den 14.05.2016 in Holzhau im Erzgebirge (630m ü.NN)
ZeitTemperaturLuftdruckRel. LuftfeuchteWindWindrichtungWindchillTaupunktNiederschlag l/m²
23:45:001.80 °C1007.00 hPa81.00 %-1.10 °C0.52
23:30:002.30 °C1007.00 hPa80.00 %-0.80 °C0.52
23:15:002.90 °C1006.90 hPa80.00 %-0.20 °C0.52
23:00:003.30 °C1006.70 hPa80.00 %0.20 °C0.52
22:45:003.50 °C1006.70 hPa80.00 %0.40 °C0.52
22:30:003.60 °C1006.40 hPa80.00 %0.50 °C0.52
22:15:003.40 °C1006.20 hPa80.00 %0.30 °C0.52
22:00:003.10 °C1006.10 hPa80.00 %0.00 °C0.52
21:45:002.70 °C1006.20 hPa80.00 %-0.40 °C0.52
21:30:002.30 °C1006.00 hPa79.00 %-1.00 °C0.52
21:15:002.40 °C1005.80 hPa78.00 %-1.00 °C0.52
21:00:002.40 °C1005.80 hPa77.00 %-1.20 °C0.52
20:45:002.90 °C1005.60 hPa76.00 %-0.90 °C0.52
20:30:003.50 °C1005.70 hPa75.00 %-0.50 °C0.52
20:15:003.90 °C1005.50 hPa75.00 %-0.10 °C0.52
20:00:004.40 °C1005.30 hPa74.00 %0.20 °C0.52
19:45:004.90 °C1005.30 hPa73.00 %0.50 °C0.52
19:30:005.50 °C1005.20 hPa72.00 %0.90 °C0.52
19:15:006.20 °C1004.90 hPa72.00 %1.50 °C0.52
19:00:006.50 °C1004.90 hPa73.00 %2.00 °C0.52
18:45:006.90 °C1004.70 hPa74.00 %2.60 °C0.52
18:30:007.10 °C1004.80 hPa74.00 %2.80 °C0.52
18:15:007.50 °C1004.50 hPa74.00 %3.20 °C0.52
18:00:007.80 °C1004.40 hPa75.00 %3.70 °C0.52
17:45:007.80 °C1004.30 hPa75.00 %3.70 °C0.52
17:30:007.80 °C1004.40 hPa76.00 %3.80 °C0.52
17:15:007.40 °C1004.30 hPa77.00 %3.60 °C0.52
17:00:007.20 °C1004.40 hPa77.00 %3.40 °C0.52
16:45:007.60 °C1004.30 hPa77.00 %3.80 °C0.52
16:30:007.70 °C1004.20 hPa78.00 %4.10 °C0.52
16:15:007.90 °C1004.00 hPa78.00 %4.30 °C0.52
16:00:007.80 °C1004.00 hPa79.00 %4.40 °C0.52
15:45:007.60 °C1004.10 hPa79.00 %4.20 °C0.52
15:30:007.60 °C1004.00 hPa78.00 %4.00 °C0.52
15:15:008.10 °C1004.00 hPa78.00 %4.50 °C0.52
15:00:008.00 °C1003.80 hPa78.00 %4.40 °C0.52
14:45:007.80 °C1003.80 hPa78.00 %4.20 °C0.52
14:30:008.10 °C1003.90 hPa76.00 %4.10 °C0.52
14:15:008.50 °C1003.70 hPa74.00 %4.10 °C0.52
14:00:009.30 °C1003.70 hPa73.00 %4.70 °C0.52
13:45:009.80 °C1003.60 hPa71.00 %4.80 °C0.52
13:30:0010.90 °C1003.40 hPa69.00 %5.40 °C0.52
13:15:0011.90 °C1003.50 hPa68.00 %6.20 °C0.52
13:00:0012.10 °C1003.00 hPa69.00 %6.60 °C0.52
12:45:0011.30 °C1003.00 hPa69.00 %5.80 °C0.52
12:30:0011.60 °C1002.80 hPa71.00 %6.50 °C0.52
12:15:0011.30 °C1002.80 hPa74.00 %6.80 °C0.52
12:00:0010.90 °C1002.80 hPa75.00 %6.60 °C0.52
11:45:0010.80 °C1002.70 hPa78.00 %7.10 °C0.52
11:30:0010.50 °C1002.70 hPa78.00 %6.80 °C0.52
11:15:0010.10 °C1002.70 hPa80.00 %6.80 °C0.52
11:00:0010.10 °C1002.60 hPa83.00 %7.30 °C0.52
10:45:009.60 °C1002.60 hPa85.00 %7.20 °C0.52
10:30:009.20 °C1002.50 hPa87.00 %7.20 °C0.52
10:15:008.90 °C1002.50 hPa90.00 %7.40 °C0.52
10:00:007.80 °C1002.50 hPa92.00 %6.60 °C0.52
09:45:006.70 °C1002.50 hPa92.00 %5.50 °C0.52
09:30:007.00 °C1002.30 hPa93.00 %5.90 °C0.52
09:15:007.20 °C1002.20 hPa93.00 %6.10 °C0.52
09:00:006.80 °C1002.10 hPa94.00 %5.90 °C0.52
08:45:006.50 °C1001.80 hPa94.00 %5.60 °C0.52
08:30:006.30 °C1001.60 hPa94.00 %5.40 °C0.52
08:15:006.60 °C1001.30 hPa94.00 %5.70 °C0.52
08:00:006.50 °C1001.40 hPa93.00 %5.50 °C0.52
07:45:006.60 °C1001.10 hPa94.00 %5.70 °C0.52
07:30:006.40 °C1001.00 hPa94.00 %5.50 °C0.52
07:15:006.10 °C1001.00 hPa93.00 %5.10 °C0.52
07:00:005.80 °C1000.90 hPa93.00 %4.80 °C0.52
06:45:005.50 °C1000.80 hPa93.00 %4.50 °C0.52
06:30:005.00 °C1000.70 hPa93.00 %4.00 °C0.52
06:15:004.50 °C1000.50 hPa93.00 %3.50 °C0.52
06:00:003.80 °C1000.40 hPa93.00 %2.80 °C0.52
05:45:003.10 °C1000.20 hPa93.00 %2.10 °C0.52
05:30:002.60 °C1000.20 hPa92.00 %1.40 °C0.52
05:15:002.40 °C1000.20 hPa92.00 %1.20 °C0.52
05:00:002.20 °C1000.00 hPa92.00 %1.00 °C0.52
04:45:002.10 °C1000.20 hPa92.00 %0.90 °C0.52
04:30:002.10 °C1000.00 hPa92.00 %0.90 °C0.52
04:15:002.10 °C999.90 hPa92.00 %0.90 °C0.52
04:00:002.30 °C999.70 hPa92.00 %1.10 °C0.52
03:45:002.60 °C999.70 hPa92.00 %1.40 °C0.52
03:30:002.90 °C999.50 hPa91.00 %1.60 °C0.52
03:15:003.30 °C999.60 hPa91.00 %2.00 °C0.52
03:00:003.60 °C999.30 hPa91.00 %2.30 °C0.52
02:45:003.80 °C999.10 hPa92.00 %2.60 °C0.52
02:30:004.30 °C999.20 hPa91.00 %3.00 °C0.52
02:15:005.10 °C999.10 hPa91.00 %3.80 °C 
02:00:005.80 °C999.00 hPa91.00 %4.40 °C 
01:45:006.20 °C998.90 hPa91.00 %4.80 °C 
01:30:006.90 °C998.80 hPa91.00 %5.50 °C 
01:15:007.80 °C999.00 hPa92.00 %6.60 °C 
01:00:008.30 °C998.90 hPa92.00 %7.10 °C 
00:45:008.50 °C998.80 hPa92.00 %7.30 °C 
00:30:008.40 °C998.80 hPa92.00 %7.20 °C 
00:15:008.30 °C998.80 hPa92.00 %7.10 °C 
00:00:008.10 °C998.90 hPa91.00 %6.70 °C 

Permanenter Link zu dieser Seite: Wetter im Erzgebirge am 14.05.2016
Performance-Info: Die Erstellung der Seite / Statistik(en) / Tabelle(n) erforderte 5 Datenbankserver-Abfrage(n) und dauerte 123 Millisekunden. (Dieser Messwert ist von der Gesamt-Auslastung des Servers abhängig.)
Erzgebirge - Wetter | Erzgebirge - Wetter (Mobilgeräte) | Komplette Klimadatenbank